Time;durP1;ratioP1;P1;durP2;ratioP2;P2;SDS_P1;SDS_P2;PMS_P1;PMS_P2;Temp;Humidity;BMP_temperature;BMP_pressure;BME280_temperature;BME280_humidity;BME280_pressure;Samples;Min_cycle;Max_cycle;Signal;HPM_P1;HPM_P2
2022/04/11 00:00:15;;;;;;;2.05;1.60;;;;;;;3.85;71.42;100768.59;5557390;32;34132;-65
2022/04/11 00:03:18;;;;;;;3.15;1.75;;;;;;;3.80;71.94;100776.81;5571111;32;34334;-65
2022/04/11 00:06:21;;;;;;;4.55;1.77;;;;;;;3.79;72.09;100772.50;5544597;32;33212;-66
2022/04/11 00:09:23;;;;;;;3.22;1.60;;;;;;;3.76;72.92;100771.91;5544433;32;32648;-66
2022/04/11 00:12:26;;;;;;;5.32;1.70;;;;;;;3.66;73.24;100768.28;5557232;32;35542;-66
2022/04/11 00:15:29;;;;;;;2.47;1.75;;;;;;;3.63;73.41;100765.91;5570847;32;34371;-66
2022/04/11 00:18:32;;;;;;;5.00;1.83;;;;;;;3.51;74.06;100770.25;5570883;32;34901;-66
2022/04/11 00:21:35;;;;;;;3.83;1.83;;;;;;;3.45;73.71;100771.56;5570922;32;34095;-66
2022/04/11 00:24:37;;;;;;;2.40;1.52;;;;;;;3.46;74.53;100765.38;5571144;32;34548;-66
2022/04/11 00:27:41;;;;;;;5.10;1.80;;;;;;;3.34;74.79;100774.12;5571156;32;34256;-66
2022/04/11 00:30:44;;;;;;;2.28;1.70;;;;;;;3.13;75.73;100767.81;5570728;32;34920;-66
2022/04/11 00:33:48;;;;;;;3.55;1.73;;;;;;;2.94;76.78;100772.72;5557142;32;33010;-66
2022/04/11 00:36:50;;;;;;;2.10;1.37;;;;;;;3.35;74.78;100774.94;5557136;32;34192;-66
2022/04/11 00:39:53;;;;;;;4.30;1.58;;;;;;;3.38;74.39;100780.84;5570669;32;34994;-66
2022/04/11 00:42:56;;;;;;;3.05;1.60;;;;;;;3.59;72.56;100778.41;5544177;32;33291;-66
2022/04/11 00:46:00;;;;;;;2.95;1.42;;;;;;;3.65;72.25;100774.50;5570548;32;34902;-65
2022/04/11 00:49:02;;;;;;;2.42;1.20;;;;;;;3.78;70.93;100776.06;5556905;31;32999;-65
2022/04/11 00:52:06;;;;;;;5.22;1.80;;;;;;;3.86;70.44;100778.97;5556977;32;35549;-66
2022/04/11 00:55:09;;;;;;;4.53;1.70;;;;;;;3.83;70.99;100784.44;5570639;32;34289;-66
2022/04/11 00:58:13;;;;;;;3.50;1.60;;;;;;;3.75;71.42;100780.72;5570856;32;34221;-66
2022/04/11 01:01:16;;;;;;;5.50;1.60;;;;;;;3.63;72.50;100786.91;5570525;32;34179;-65
2022/04/11 01:04:27;;;;;;;5.20;1.90;;;;;;;3.58;73.06;100787.25;5556797;32;33447;-66
2022/04/11 01:07:38;;;;;;;2.67;1.50;;;;;;;3.55;73.68;100784.81;5556618;32;32640;-65
2022/04/11 01:10:41;;;;;;;6.07;1.77;;;;;;;3.50;73.86;100789.56;5570457;32;34330;-66
2022/04/11 01:13:43;;;;;;;2.30;1.62;;;;;;;3.48;74.23;100788.88;5570372;32;34648;-66
2022/04/11 01:16:51;;;;;;;3.65;1.83;;;;;;;3.46;74.57;100788.12;5556543;32;33745;-66
2022/04/11 01:19:54;;;;;;;3.50;1.98;;;;;;;3.37;74.98;100794.88;5556544;32;32714;-67
2022/04/11 01:22:57;;;;;;;3.67;2.00;;;;;;;3.29;76.04;100788.53;5570305;32;34271;-66
2022/04/11 01:25:59;;;;;;;3.35;2.00;;;;;;;3.26;76.06;100786.13;5570212;32;34600;-66
2022/04/11 01:29:06;;;;;;;4.32;1.70;;;;;;;3.27;76.06;100780.78;5570585;32;34358;-65
2022/04/11 01:32:09;;;;;;;3.33;1.90;;;;;;;3.22;76.39;100772.41;5549500;32;34393;-66
2022/04/11 01:35:24;;;;;;;4.12;2.00;;;;;;;3.21;77.08;100783.00;5550725;32;34600;-66
2022/04/11 01:38:26;;;;;;;5.43;2.15;;;;;;;3.26;76.68;100781.72;5549954;32;34316;-66
2022/04/11 01:41:31;;;;;;;3.72;2.00;;;;;;;3.28;76.17;100795.56;5550649;32;34798;-66
2022/04/11 01:44:34;;;;;;;2.30;1.95;;;;;;;3.25;76.93;100792.28;5549934;32;32862;-66
2022/04/11 01:47:42;;;;;;;6.50;2.37;;;;;;;3.22;77.16;100798.63;5551053;32;34576;-66
2022/04/11 01:50:45;;;;;;;3.75;2.17;;;;;;;3.16;77.65;100804.28;5550520;32;34101;-66
2022/04/11 01:53:49;;;;;;;4.62;2.22;;;;;;;3.12;77.82;100812.50;5550645;32;34236;-66
2022/04/11 01:56:51;;;;;;;4.65;2.25;;;;;;;3.03;78.68;100812.22;5549985;32;34412;-66
2022/04/11 01:59:54;;;;;;;4.15;2.30;;;;;;;3.00;79.07;100814.22;5549532;32;32929;-67
2022/04/11 02:03:01;;;;;;;2.95;2.03;;;;;;;2.92;79.82;100806.87;5549891;32;34383;-66
2022/04/11 02:06:04;;;;;;;3.90;1.92;;;;;;;2.92;79.77;100812.12;5549806;32;35360;-67
2022/04/11 02:09:07;;;;;;;3.87;1.98;;;;;;;3.05;79.33;100815.53;5550540;32;34805;-66
2022/04/11 02:12:10;;;;;;;4.60;1.98;;;;;;;3.08;79.38;100814.50;5550549;32;34852;-66
2022/04/11 02:15:13;;;;;;;4.10;1.90;;;;;;;3.11;78.94;100823.91;5549750;32;35513;-65
2022/04/11 02:18:16;;;;;;;3.67;1.98;;;;;;;3.05;79.26;100820.78;5550362;32;34849;-66
2022/04/11 02:21:19;;;;;;;3.37;1.75;;;;;;;3.01;79.51;100821.94;5549417;32;33063;-65
2022/04/11 02:24:21;;;;;;;3.28;1.85;;;;;;;2.94;80.60;100827.75;5550719;32;34272;-66
2022/04/11 02:27:25;;;;;;;2.72;1.77;;;;;;;3.12;78.93;100822.97;5550457;32;34140;-66
2022/04/11 02:30:28;;;;;;;3.67;2.00;;;;;;;3.08;79.47;100824.16;5557071;32;34292;-66
2022/04/11 02:33:31;;;;;;;4.43;1.92;;;;;;;2.98;80.42;100832.66;5570031;32;34266;-66
2022/04/11 02:36:34;;;;;;;4.72;2.45;;;;;;;2.83;81.74;100825.03;5569709;32;34287;-66
2022/04/11 02:39:36;;;;;;;3.30;2.30;;;;;;;2.76;82.28;100827.22;5555667;32;32719;-67
2022/04/11 02:42:44;;;;;;;2.95;2.30;;;;;;;2.65;83.04;100829.78;5569730;32;34898;-66
2022/04/11 02:45:47;;;;;;;4.72;2.50;;;;;;;2.80;82.53;100820.88;5569609;32;34179;-66
2022/04/11 02:48:50;;;;;;;3.47;2.00;;;;;;;2.90;82.53;100828.91;5569517;32;34282;-67
2022/04/11 02:51:53;;;;;;;5.30;2.30;;;;;;;2.92;82.35;100827.00;5569927;32;34531;-66
2022/04/11 02:54:57;;;;;;;4.65;2.20;;;;;;;2.91;81.72;100831.41;5569793;32;34277;-66
2022/04/11 02:57:59;;;;;;;3.92;2.20;;;;;;;2.93;81.91;100834.78;5569444;32;34857;-66
2022/04/11 03:01:02;;;;;;;2.78;2.28;;;;;;;2.95;81.66;100832.06;5543027;32;34200;-65
2022/04/11 03:04:07;;;;;;;4.75;2.37;;;;;;;2.89;82.47;100833.31;5555165;32;33951;-65
2022/04/11 03:07:11;;;;;;;5.22;2.72;;;;;;;2.89;82.67;100842.94;5555548;32;33294;-66
2022/04/11 03:10:14;;;;;;;7.18;2.72;;;;;;;2.94;82.11;100830.37;5555684;32;34194;-66
2022/04/11 03:13:18;;;;;;;5.15;2.87;;;;;;;2.89;82.59;100833.31;5555359;32;33553;-66
2022/04/11 03:16:20;;;;;;;4.72;2.80;;;;;;;2.82;83.39;100844.31;5555515;32;32647;-65
2022/04/11 03:19:25;;;;;;;8.25;3.20;;;;;;;2.71;84.05;100852.91;5568980;32;34287;-65
2022/04/11 03:22:28;;;;;;;5.15;2.97;;;;;;;2.71;84.59;100850.28;5554945;32;32745;-65
2022/04/11 03:25:32;;;;;;;4.32;2.90;;;;;;;2.67;85.13;100850.63;5568802;32;34498;-64
2022/04/11 03:28:35;;;;;;;4.45;2.47;;;;;;;2.71;84.83;100860.78;5554951;32;33425;-65
2022/04/11 03:31:38;;;;;;;4.35;3.15;;;;;;;2.73;84.66;100864.13;5568767;32;34872;-67
2022/04/11 03:34:42;;;;;;;5.62;3.12;;;;;;;2.72;84.79;100854.59;5568791;32;34225;-68
2022/04/11 03:37:45;;;;;;;5.68;3.05;;;;;;;2.68;84.86;100863.63;5568784;32;35472;-67
2022/04/11 03:40:49;;;;;;;4.07;2.83;;;;;;;2.72;84.77;100859.84;5568668;32;34913;-67
2022/04/11 03:43:51;;;;;;;7.72;3.05;;;;;;;2.66;85.40;100873.38;5569107;32;35527;-67
2022/04/11 03:46:54;;;;;;;4.78;2.87;;;;;;;2.64;85.86;100880.50;5555052;32;34848;-66
2022/04/11 03:49:57;;;;;;;5.55;3.10;;;;;;;2.71;85.30;100889.59;5568487;32;34520;-67
2022/04/11 03:53:00;;;;;;;3.92;2.70;;;;;;;2.67;85.82;100892.53;5568430;32;34854;-67
2022/04/11 03:56:04;;;;;;;5.22;2.92;;;;;;;2.64;85.85;100893.59;5569060;32;34423;-66
2022/04/11 03:59:07;;;;;;;7.75;2.60;;;;;;;2.63;85.92;100887.50;5568593;32;34348;-67
2022/04/11 04:02:11;;;;;;;6.37;3.20;;;;;;;2.60;86.44;100898.22;5568646;32;34311;-66
2022/04/11 04:05:15;;;;;;;6.57;2.78;;;;;;;2.53;87.50;100904.78;5568163;32;34363;-66
2022/04/11 04:08:17;;;;;;;4.47;3.00;;;;;;;2.60;87.27;100902.59;5554060;32;33862;-67
2022/04/11 04:11:22;;;;;;;4.22;2.78;;;;;;;2.52;87.71;100903.09;5568420;32;34983;-66
2022/04/11 04:14:26;;;;;;;4.68;2.70;;;;;;;2.49;88.18;100905.94;5554133;32;33147;-67
2022/04/11 04:17:29;;;;;;;4.45;2.58;;;;;;;2.52;88.30;100912.72;5568172;32;35580;-67
2022/04/11 04:20:32;;;;;;;6.15;3.00;;;;;;;2.57;88.37;100908.03;5570247;32;34344;-66
2022/04/11 04:23:36;;;;;;;3.05;2.58;;;;;;;2.59;87.78;100914.00;5571198;32;34749;-67
2022/04/11 04:26:38;;;;;;;3.80;2.70;;;;;;;2.55;87.76;100916.00;5557472;32;34537;-66
2022/04/11 04:29:42;;;;;;;6.25;3.08;;;;;;;2.51;87.89;100922.41;5556695;32;33733;-67
2022/04/11 04:32:45;;;;;;;6.20;3.00;;;;;;;2.50;88.11;100927.72;5570880;32;34361;-67
2022/04/11 04:35:48;;;;;;;5.60;2.97;;;;;;;2.52;88.25;100926.66;5557106;32;34186;-66
2022/04/11 04:38:51;;;;;;;3.72;2.47;;;;;;;2.53;88.60;100933.59;5570689;32;35528;-66
2022/04/11 04:41:53;;;;;;;3.87;2.72;;;;;;;2.57;87.97;100939.47;5570730;32;34907;-67
2022/04/11 04:44:57;;;;;;;5.18;2.45;;;;;;;2.67;88.52;100944.91;5570874;32;34732;-67
2022/04/11 04:48:00;;;;;;;4.78;2.80;;;;;;;2.75;88.17;100953.13;5556930;32;32599;-66
2022/04/11 04:51:05;;;;;;;3.92;2.70;;;;;;;2.89;87.14;100955.63;5557139;32;35503;-66
2022/04/11 04:54:09;;;;;;;9.18;2.60;;;;;;;2.86;87.28;100956.66;5556363;32;33005;-66
2022/04/11 04:57:13;;;;;;;5.55;2.65;;;;;;;2.84;86.79;100952.50;5556748;32;32729;-66
2022/04/11 05:00:16;;;;;;;3.65;2.55;;;;;;;2.94;86.52;100957.00;5570470;32;34270;-66
2022/04/11 05:03:19;;;;;;;5.37;2.90;;;;;;;3.08;86.10;100960.44;5556660;32;33478;-67
2022/04/11 05:06:22;;;;;;;4.87;2.92;;;;;;;3.19;85.81;100963.19;5543255;32;34073;-67
2022/04/11 05:09:25;;;;;;;7.03;3.28;;;;;;;3.28;84.86;100962.53;5543459;32;33549;-66
2022/04/11 05:12:28;;;;;;;5.40;2.75;;;;;;;3.31;84.93;100971.00;5556166;32;32688;-67
2022/04/11 05:15:31;;;;;;;4.97;2.65;;;;;;;3.34;84.62;100975.22;5556039;32;34039;-67
2022/04/11 05:18:34;;;;;;;7.32;2.80;;;;;;;3.42;84.06;100970.28;5570551;32;34822;-67
2022/04/11 05:21:41;;;;;;;4.78;2.60;;;;;;;3.41;83.71;100971.22;5555825;32;32193;-66
2022/04/11 05:24:44;;;;;;;3.70;2.40;;;;;;;3.48;83.23;100973.31;5569836;32;33599;-67
2022/04/11 05:27:46;;;;;;;4.20;2.58;;;;;;;3.53;83.07;100977.38;5570129;32;33956;-67
2022/04/11 05:30:49;;;;;;;4.10;2.70;;;;;;;3.60;83.16;100978.63;5569079;32;34596;-68
2022/04/11 05:33:53;;;;;;;2.53;2.00;;;;;;;3.47;82.66;100974.25;5555779;32;32132;-67
2022/04/11 05:36:56;;;;;;;3.83;2.58;;;;;;;3.46;83.03;100967.31;5555839;32;34460;-67
2022/04/11 05:39:58;;;;;;;5.28;2.58;;;;;;;3.62;81.91;100974.12;5569767;32;34867;-66
2022/04/11 05:43:03;;;;;;;4.35;2.12;;;;;;;3.64;81.27;100965.16;5569833;32;34327;-65
2022/04/11 05:46:06;;;;;;;7.05;2.97;;;;;;;3.76;80.53;100972.19;5555803;32;32998;-66
2022/04/11 05:49:10;;;;;;;4.00;2.50;;;;;;;3.79;80.26;100973.72;5569954;32;34187;-67
2022/04/11 05:52:15;;;;;;;8.70;2.58;;;;;;;3.72;80.87;100968.09;5569217;32;34202;-68
2022/04/11 05:55:19;;;;;;;4.07;2.25;;;;;;;3.96;79.39;100965.50;5569717;32;34543;-66
2022/04/11 05:58:21;;;;;;;4.87;2.15;;;;;;;4.07;79.64;100970.78;5569165;32;34951;-66
2022/04/11 06:01:31;;;;;;;5.57;2.50;;;;;;;4.10;79.58;100977.62;5569579;32;34959;-67
2022/04/11 06:04:34;;;;;;;4.65;2.75;;;;;;;4.09;79.84;100983.81;5555760;32;32661;-66
2022/04/11 06:07:38;;;;;;;4.82;2.50;;;;;;;4.32;79.31;100975.91;5555623;32;32630;-66
2022/04/11 06:10:43;;;;;;;3.75;2.50;;;;;;;4.28;78.38;100978.88;5554456;32;34297;-68
2022/04/11 06:13:48;;;;;;;6.22;2.58;;;;;;;4.57;77.63;100979.34;5569672;32;34276;-66
2022/04/11 06:16:51;;;;;;;4.50;2.40;;;;;;;4.54;76.83;100985.69;5569558;32;34239;-66
2022/04/11 06:19:55;;;;;;;3.53;2.05;;;;;;;4.65;76.12;100977.81;5555450;32;33994;-66
2022/04/11 06:22:58;;;;;;;6.12;2.12;;;;;;;4.58;75.89;100983.66;5542413;32;32951;-66
2022/04/11 06:26:01;;;;;;;5.97;2.40;;;;;;;4.77;74.96;100984.78;5554521;32;33666;-67
2022/04/11 06:29:05;;;;;;;7.00;2.45;;;;;;;4.82;75.16;100976.56;5555057;32;33265;-66
2022/04/11 06:32:08;;;;;;;8.05;2.62;;;;;;;5.25;74.28;100987.25;5555262;32;34079;-66
2022/04/11 06:35:12;;;;;;;4.10;2.20;;;;;;;5.34;72.62;100983.06;5568156;32;34213;-67
2022/04/11 06:38:15;;;;;;;8.50;2.35;;;;;;;5.31;72.67;100975.41;5554879;32;32584;-67
2022/04/11 06:41:18;;;;;;;4.25;2.15;;;;;;;5.56;71.63;100977.81;5554594;32;32853;-67
2022/04/11 06:44:21;;;;;;;8.30;2.70;;;;;;;5.84;69.90;100974.66;5569151;32;34221;-67
2022/04/11 06:47:24;;;;;;;4.97;2.20;;;;;;;6.60;67.26;100971.03;5555265;32;33560;-67
2022/04/11 06:50:27;;;;;;;4.55;2.42;;;;;;;7.14;64.20;100972.63;5555082;32;33954;-66
2022/04/11 06:53:30;;;;;;;4.97;2.17;;;;;;;7.55;62.55;100969.88;5555624;32;33799;-67
2022/04/11 06:56:32;;;;;;;5.22;2.30;;;;;;;8.15;60.13;100970.69;5555097;32;33674;-67
2022/04/11 06:59:35;;;;;;;4.97;2.30;;;;;;;8.81;58.44;100978.81;5555161;32;33368;-68
2022/04/11 07:02:38;;;;;;;4.53;2.00;;;;;;;9.14;56.98;100991.53;5569003;32;34533;-67
2022/04/11 07:05:41;;;;;;;3.67;1.73;;;;;;;8.26;58.11;100978.50;5555377;32;32925;-67
2022/04/11 07:08:43;;;;;;;4.32;2.30;;;;;;;8.91;57.23;100984.88;5569433;32;34383;-68
2022/04/11 07:11:46;;;;;;;4.55;2.12;;;;;;;9.20;56.18;100987.50;5554840;32;33212;-68
2022/04/11 07:14:49;;;;;;;5.72;2.08;;;;;;;9.66;54.47;100989.25;5555474;32;32638;-68
2022/04/11 07:17:52;;;;;;;5.07;2.08;;;;;;;10.51;51.37;100988.84;5568638;32;34178;-67
2022/04/11 07:20:55;;;;;;;4.37;1.80;;;;;;;10.57;50.39;100989.06;5568759;32;34894;-67
2022/04/11 07:23:57;;;;;;;3.67;2.00;;;;;;;10.98;49.46;100981.44;5555134;32;32824;-69
2022/04/11 07:27:00;;;;;;;5.32;2.30;;;;;;;10.89;48.98;100989.31;5554628;32;32839;-66
2022/04/11 07:30:04;;;;;;;2.37;1.70;;;;;;;11.58;47.44;100987.56;5554884;32;34153;-67
2022/04/11 07:33:08;;;;;;;3.17;1.83;;;;;;;10.84;49.33;100980.19;5555045;32;34320;-67
2022/04/11 07:36:11;;;;;;;3.45;1.90;;;;;;;11.77;46.22;100980.22;5568673;32;34187;-68
2022/04/11 07:39:14;;;;;;;5.05;1.65;;;;;;;11.95;45.84;100980.13;5568609;32;34601;-67
2022/04/11 07:42:17;;;;;;;3.28;2.10;;;;;;;10.66;48.65;100984.66;5568659;32;35482;-67
2022/04/11 07:45:21;;;;;;;4.85;1.80;;;;;;;11.40;47.45;100981.50;5568549;32;34235;-65
2022/04/11 07:48:28;;;;;;;5.22;2.12;;;;;;;12.09;45.72;100978.66;5554534;31;33864;-67
2022/04/11 07:51:31;;;;;;;2.75;1.73;;;;;;;11.90;46.03;100974.44;5568158;32;35112;-67
2022/04/11 07:54:34;;;;;;;4.47;2.05;;;;;;;12.05;44.32;100970.16;5555997;32;33900;-67
2022/04/11 07:57:37;;;;;;;3.72;1.65;;;;;;;11.01;48.79;100974.00;5570971;32;34643;-66
2022/04/11 08:00:58;;;;;;;5.50;2.00;;;;;;;11.50;46.18;100976.91;5571265;32;34872;-66
2022/04/11 08:04:01;;;;;;;2.95;1.90;;;;;;;12.84;43.75;100984.69;5570905;32;34938;-66
2022/04/11 08:07:03;;;;;;;4.87;1.77;;;;;;;13.74;40.89;100980.84;5570963;32;34862;-67
2022/04/11 08:10:07;;;;;;;2.42;1.85;;;;;;;12.57;43.08;100980.53;5571235;32;34374;-67
2022/04/11 08:13:09;;;;;;;5.12;2.00;;;;;;;12.57;43.66;100985.87;5556989;32;32325;-65
2022/04/11 08:16:13;;;;;;;4.70;1.95;;;;;;;13.04;41.85;100975.34;5570871;32;34207;-66
2022/04/11 08:19:15;;;;;;;4.37;2.00;;;;;;;13.21;42.21;100982.34;5544323;32;32690;-67
2022/04/11 08:22:18;;;;;;;3.30;1.67;;;;;;;13.06;40.74;100976.00;5571147;32;34166;-67
2022/04/11 08:25:21;;;;;;;3.95;1.50;;;;;;;13.20;40.26;100970.03;5570665;32;34909;-67
2022/04/11 08:28:24;;;;;;;3.10;1.75;;;;;;;12.90;40.88;100986.69;5556477;32;32807;-69
2022/04/11 08:31:27;;;;;;;7.70;1.60;;;;;;;13.70;39.54;100976.84;5556532;32;33616;-66
2022/04/11 08:34:30;;;;;;;3.80;1.65;;;;;;;13.79;38.80;100967.81;5556500;32;32650;-67
2022/04/11 08:37:37;;;;;;;3.37;1.73;;;;;;;14.71;36.32;100969.56;5570308;32;34899;-67
2022/04/11 08:40:40;;;;;;;3.50;1.80;;;;;;;13.78;38.08;100969.63;5556902;32;34193;-66
2022/04/11 08:43:43;;;;;;;3.25;1.90;;;;;;;14.33;37.05;100974.78;5570498;32;34929;-67
2022/04/11 08:46:48;;;;;;;8.15;1.65;;;;;;;14.90;36.75;100974.38;5556568;32;33544;-68
2022/04/11 08:49:53;;;;;;;7.40;1.58;;;;;;;13.14;38.49;100969.84;5556575;32;33685;-67
2022/04/11 08:52:57;;;;;;;2.90;1.60;;;;;;;14.45;37.00;100964.59;5570547;32;34201;-67
2022/04/11 08:55:59;;;;;;;2.85;1.77;;;;;;;13.84;38.23;100963.63;5556049;32;32917;-67
2022/04/11 08:59:03;;;;;;;4.60;1.40;;;;;;;13.92;38.31;100966.22;5556600;32;33890;-66
2022/04/11 09:02:09;;;;;;;2.65;1.70;;;;;;;14.13;36.55;100965.63;5570121;32;34856;-67
2022/04/11 09:05:22;;;;;;;1.80;1.25;;;;;;;13.69;38.07;100967.19;5556244;32;32787;-67
2022/04/11 09:08:41;;;;;;;2.33;1.20;;;;;;;14.43;36.14;100971.09;5556528;32;34973;-66
2022/04/11 09:11:44;;;;;;;3.53;2.17;;;;;;;11.74;40.50;100975.22;5556390;32;32961;-66
2022/04/11 09:14:54;;;;;;;2.45;1.45;;;;;;;10.84;43.14;100978.34;5569953;32;34285;-66
2022/04/11 09:17:59;;;;;;;2.37;1.62;;;;;;;10.42;45.88;100966.72;5556103;32;33816;-66
2022/04/11 09:21:02;;;;;;;2.55;1.27;;;;;;;10.29;46.82;100971.59;5569996;32;34895;-66
2022/04/11 09:24:22;;;;;;;2.05;1.50;;;;;;;9.80;46.25;100965.75;5570039;32;34357;-66
2022/04/11 09:27:25;;;;;;;;;;;;;;;9.97;48.33;100966.75;5556100;32;33057;-67
2022/04/11 09:30:31;;;;;;;2.90;1.67;;;;;;;9.72;47.99;100978.06;5543302;32;34688;-66
2022/04/11 09:33:39;;;;;;;3.67;1.70;;;;;;;9.59;48.05;100968.63;5555657;32;32840;-65
2022/04/11 09:36:57;;;;;;;4.68;1.90;;;;;;;9.37;47.38;100973.47;5569868;32;34249;-66
2022/04/11 09:40:03;;;;;;;4.62;2.37;;;;;;;9.24;48.38;100965.87;5555988;32;32842;-65
2022/04/11 09:43:06;;;;;;;3.92;1.70;;;;;;;9.33;49.79;100957.06;5569948;32;34339;-66
2022/04/11 09:46:09;;;;;;;2.12;1.77;;;;;;;9.56;47.88;100958.34;5569892;32;34351;-68
2022/04/11 09:49:12;;;;;;;3.97;1.90;;;;;;;9.67;46.01;100965.25;5556122;32;32764;-67
2022/04/11 09:52:15;;;;;;;4.30;1.50;;;;;;;9.58;47.27;100959.00;5570157;32;34812;-66
2022/04/11 09:55:19;;;;;;;5.72;2.00;;;;;;;9.63;48.07;100955.13;5570258;32;35375;-68
2022/04/11 09:58:36;;;;;;;4.20;2.10;;;;;;;9.68;46.61;100956.34;5570280;32;34257;-66
2022/04/11 10:01:39;;;;;;;2.87;1.80;;;;;;;9.45;47.30;100942.63;5557744;32;34857;-67
2022/04/11 10:04:43;;;;;;;5.65;1.60;;;;;;;9.51;47.43;100960.59;5556215;32;32992;-66
2022/04/11 10:07:47;;;;;;;4.22;1.80;;;;;;;9.49;47.71;100948.47;5542764;32;35602;-66
2022/04/11 10:10:52;;;;;;;2.00;1.62;;;;;;;9.65;45.38;100945.19;5569626;32;34246;-66
2022/04/11 10:13:55;;;;;;;3.35;1.70;;;;;;;9.69;46.03;100951.84;5569810;32;35102;-67
2022/04/11 10:17:01;;;;;;;4.90;1.98;;;;;;;9.64;44.59;100944.34;5541705;32;34286;-66
2022/04/11 10:20:05;;;;;;;2.90;2.05;;;;;;;9.82;46.48;100955.84;5569112;32;34236;-69
2022/04/11 10:23:10;;;;;;;4.60;1.45;;;;;;;9.80;44.48;100949.84;5556076;32;34950;-66
2022/04/11 10:26:18;;;;;;;3.03;1.80;;;;;;;9.79;43.92;100940.22;5570036;32;34233;-67
2022/04/11 10:29:36;;;;;;;2.10;1.40;;;;;;;9.67;43.79;100948.53;5555970;32;32641;-67
2022/04/11 10:32:53;;;;;;;2.75;1.50;;;;;;;10.49;43.26;100946.56;5569439;32;34222;-67
2022/04/11 10:35:56;;;;;;;3.70;1.55;;;;;;;10.86;43.53;100944.53;5569450;32;34650;-67
2022/04/11 10:39:26;;;;;;;2.12;1.55;;;;;;;10.83;42.65;100944.84;5569500;32;34165;-67
2022/04/11 10:42:30;;;;;;;1.75;1.52;;;;;;;10.64;42.36;100952.16;5553336;32;33059;-66
2022/04/11 10:45:39;;;;;;;2.20;1.50;;;;;;;11.82;40.25;100952.31;5555864;32;34160;-66
2022/04/11 10:49:07;;;;;;;2.85;1.40;;;;;;;14.16;35.92;100935.06;5555075;32;33272;-67
2022/04/11 10:52:35;;;;;;;3.15;1.60;;;;;;;15.43;34.35;100925.19;5555155;32;32559;-66
2022/04/11 10:56:03;;;;;;;2.33;1.45;;;;;;;18.04;29.09;100940.09;5569295;32;34154;-66
2022/04/11 10:59:24;;;;;;;2.25;1.30;;;;;;;15.58;31.17;100930.56;5556544;32;32637;-68
2022/04/11 11:02:53;;;;;;;3.55;1.55;;;;;;;13.81;35.35;100934.63;5555359;32;32657;-67
2022/04/11 11:06:14;;;;;;;2.92;1.48;;;;;;;18.18;30.50;100925.69;5555503;32;33190;-67
2022/04/11 11:09:18;;;;;;;1.50;1.30;;;;;;;18.20;28.10;100934.34;5555379;32;33376;-67
2022/04/11 11:12:21;;;;;;;2.12;1.48;;;;;;;16.28;29.32;100929.88;5555298;32;32697;-67
2022/04/11 11:15:27;;;;;;;3.35;1.30;;;;;;;16.38;28.76;100933.91;5568906;32;34288;-68
2022/04/11 11:18:48;;;;;;;1.25;1.15;;;;;;;20.31;24.65;100918.56;5568948;32;34739;-68
2022/04/11 11:21:54;;;;;;;2.08;1.40;;;;;;;21.92;22.83;100932.69;5554764;32;33166;-67
2022/04/11 11:25:15;;;;;;;3.85;1.48;;;;;;;16.06;29.97;100918.34;5555588;32;34168;-66
2022/04/11 11:28:19;;;;;;;1.95;1.30;;;;;;;14.19;33.57;100924.03;5555023;32;33003;-67
2022/04/11 11:31:22;;;;;;;2.22;1.45;;;;;;;12.80;36.56;100919.47;5543966;32;33050;-66
2022/04/11 11:34:28;;;;;;;1.92;1.20;;;;;;;12.60;37.26;100918.97;5557216;32;32715;-67
2022/04/11 11:37:31;;;;;;;1.95;1.42;;;;;;;12.25;37.53;100922.78;5571172;32;35408;-67
2022/04/11 11:40:36;;;;;;;2.95;1.60;;;;;;;14.29;34.15;100911.28;5571291;32;34526;-67
2022/04/11 11:43:38;;;;;;;1.80;1.48;;;;;;;17.13;29.34;100914.53;5544187;32;32435;-67
2022/04/11 11:46:55;;;;;;;1.67;1.27;;;;;;;19.30;27.08;100909.50;5557343;32;32689;-68
2022/04/11 11:50:06;;;;;;;4.80;1.40;;;;;;;20.24;24.25;100908.84;5570996;32;34513;-68
2022/04/11 11:53:12;;;;;;;1.20;1.00;;;;;;;19.95;24.91;100896.78;5544385;32;32816;-69
2022/04/11 11:56:15;;;;;;;1.30;1.10;;;;;;;21.37;21.38;100894.13;5571065;32;34604;-67
2022/04/11 11:59:19;;;;;;;1.90;1.05;;;;;;;19.85;23.61;100889.19;5571092;32;34891;-70
2022/04/11 12:05:56;;;;;;;2.25;1.40;;;;;;;23.35;20.67;100891.84;5570968;32;34530;-68
2022/04/11 12:09:01;;;;;;;2.70;1.48;;;;;;;18.19;25.42;100892.44;5571466;32;34193;-66
2022/04/11 12:12:06;;;;;;;2.67;1.48;;;;;;;13.92;32.95;100912.06;5571136;32;34585;-67
2022/04/11 12:15:09;;;;;;;1.85;1.20;;;;;;;12.83;34.88;100905.81;5556771;32;34302;-66
2022/04/11 12:18:12;;;;;;;1.67;1.30;;;;;;;12.29;34.52;100892.22;5570949;32;34880;-66
2022/04/11 12:21:15;;;;;;;2.30;1.10;;;;;;;11.90;35.24;100897.34;5556687;32;32626;-66
2022/04/11 12:24:30;;;;;;;2.67;1.50;;;;;;;12.14;34.42;100892.06;5570649;32;34670;-66
2022/04/11 12:27:32;;;;;;;1.40;1.20;;;;;;;12.48;33.90;100886.56;5570728;32;34841;-65
2022/04/11 12:30:45;;;;;;;2.15;1.45;;;;;;;13.08;34.35;100876.28;5556379;32;33766;-67
2022/04/11 12:33:50;;;;;;;2.28;1.50;;;;;;;17.84;27.55;100882.03;5556759;32;34275;-68
2022/04/11 12:37:01;;;;;;;3.10;1.70;;;;;;;21.99;22.01;100868.59;5556847;32;35555;-68
2022/04/11 12:40:04;;;;;;;2.45;1.30;;;;;;;20.03;24.03;100861.53;5570303;32;34881;-68
2022/04/11 12:43:07;;;;;;;4.43;1.30;;;;;;;20.46;23.24;100874.31;5556561;32;32754;-68
2022/04/11 12:46:09;;;;;;;1.20;1.10;;;;;;;19.32;23.55;100869.75;5570780;32;34365;-67
2022/04/11 12:49:16;;;;;;;2.90;1.40;;;;;;;18.21;25.90;100868.03;5556428;32;33033;-67
2022/04/11 12:52:21;;;;;;;2.05;1.40;;;;;;;19.18;24.61;100852.00;5570720;32;34928;-69
2022/04/11 12:55:29;;;;;;;2.60;1.10;;;;;;;18.17;24.88;100861.41;5570618;32;34887;-67
2022/04/11 12:58:37;;;;;;;2.03;1.10;;;;;;;19.65;23.17;100858.06;5556556;32;33491;-68
2022/04/11 13:01:51;;;;;;;2.80;1.20;;;;;;;18.48;25.10;100847.37;5570422;32;34648;-68
2022/04/11 13:04:55;;;;;;;3.67;1.15;;;;;;;18.10;23.83;100857.91;5556617;32;32970;-67
2022/04/11 13:08:18;;;;;;;2.12;1.20;;;;;;;14.81;27.79;100843.75;5570325;32;34813;-68
2022/04/11 13:11:21;;;;;;;0.88;0.80;;;;;;;17.14;26.52;100848.28;5555881;32;32680;-67
2022/04/11 13:14:24;;;;;;;2.17;1.00;;;;;;;19.37;23.74;100840.34;5570322;32;34458;-67
2022/04/11 13:21:08;;;;;;;2.20;1.08;;;;;;;15.77;27.26;100836.34;5556211;32;32897;-68
2022/04/11 13:24:11;;;;;;;1.70;1.08;;;;;;;18.10;24.22;100831.91;5555885;32;32661;-68
2022/04/11 13:27:14;;;;;;;2.35;1.12;;;;;;;20.43;21.77;100834.31;5556420;32;33931;-68
2022/04/11 13:30:17;;;;;;;1.90;1.30;;;;;;;22.17;20.89;100837.19;5570124;32;34896;-67
2022/04/11 13:33:26;;;;;;;2.12;1.12;;;;;;;18.23;24.90;100834.59;5557496;32;34125;-67
2022/04/11 13:36:29;;;;;;;1.77;1.08;;;;;;;14.73;29.08;100836.66;5556196;32;34622;-66
2022/04/11 13:39:32;;;;;;;3.20;1.20;;;;;;;14.28;29.33;100833.03;5556284;32;32738;-66
2022/04/11 13:42:36;;;;;;;1.73;1.23;;;;;;;13.51;30.64;100836.00;5555932;32;32576;-66
2022/04/11 13:45:58;;;;;;;1.20;1.05;;;;;;;13.97;29.99;100835.00;5545140;32;34737;-67
2022/04/11 13:49:01;;;;;;;2.08;1.12;;;;;;;17.36;25.25;100826.53;5555966;32;33612;-67
2022/04/11 13:52:07;;;;;;;1.95;1.20;;;;;;;19.87;22.84;100816.28;5568635;32;34981;-68
2022/04/11 13:55:09;;;;;;;3.25;1.15;;;;;;;19.87;23.32;100827.06;5555823;32;32821;-68
2022/04/11 13:58:13;;;;;;;2.97;1.20;;;;;;;21.28;21.83;100808.31;5556030;32;34303;-67
2022/04/11 14:01:16;;;;;;;2.30;0.90;;;;;;;22.95;18.29;100822.25;5556040;32;34286;-68
2022/04/11 14:04:23;;;;;;;1.20;0.90;;;;;;;24.79;17.70;100816.31;5569537;32;34193;-68
2022/04/11 14:07:25;;;;;;;1.85;1.10;;;;;;;23.40;18.87;100814.25;5569566;32;34893;-70
2022/04/11 14:10:28;;;;;;;1.45;1.00;;;;;;;21.38;19.83;100814.81;5569641;32;34849;-67
2022/04/11 14:13:31;;;;;;;2.37;1.30;;;;;;;21.82;20.13;100812.75;5555536;32;34187;-67
2022/04/11 14:16:39;;;;;;;1.40;1.05;;;;;;;22.25;20.29;100809.78;5569151;32;34885;-67
2022/04/11 14:19:41;;;;;;;2.35;0.95;;;;;;;19.90;21.28;100805.06;5569255;32;34996;-67
2022/04/11 14:22:44;;;;;;;1.70;1.00;;;;;;;16.24;26.68;100802.78;5569017;32;34085;-67
2022/04/11 14:25:47;;;;;;;1.50;0.85;;;;;;;17.06;24.43;100809.09;5554697;32;35097;-68
2022/04/11 14:28:50;;;;;;;1.80;0.93;;;;;;;15.86;25.77;100795.06;5569017;32;34298;-68
2022/04/11 14:31:56;;;;;;;1.45;0.80;;;;;;;14.33;28.41;100806.66;5569347;32;34681;-68